createdAt,value
2018-08-25T00:00:17.067Z,7.20
2018-08-25T00:01:53.649Z,8.20
2018-08-25T00:03:29.054Z,8.20
2018-08-25T00:05:04.556Z,7.30
2018-08-25T00:06:40.000Z,7.73
2018-08-25T00:08:15.422Z,7.50
2018-08-25T00:09:50.880Z,7.83
2018-08-25T00:11:26.407Z,8.30
2018-08-25T00:13:01.883Z,8.07
2018-08-25T00:14:37.360Z,7.53
2018-08-25T00:16:12.848Z,6.40
2018-08-25T00:17:48.409Z,6.23
2018-08-25T00:19:23.933Z,6.83
2018-08-25T00:20:59.407Z,6.20
2018-08-25T00:22:34.907Z,6.50
2018-08-25T00:24:10.355Z,5.77
2018-08-25T00:25:45.820Z,5.20
2018-08-25T00:27:21.335Z,6.70
2018-08-25T00:28:56.798Z,5.43
2018-08-25T00:30:37.662Z,5.73
2018-08-25T00:32:13.105Z,4.73
2018-08-25T00:33:48.616Z,5.10
2018-08-25T00:35:24.151Z,4.97
2018-08-25T00:36:59.601Z,5.13
2018-08-25T00:38:35.149Z,4.80
2018-08-25T00:40:10.664Z,5.07
2018-08-25T00:41:46.402Z,5.07
2018-08-25T00:43:21.875Z,5.07
2018-08-25T00:44:57.552Z,4.73
2018-08-25T00:46:33.092Z,4.50
2018-08-25T00:48:08.529Z,5.20
2018-08-25T00:49:44.025Z,4.60
2018-08-25T00:51:19.565Z,4.37
2018-08-25T00:52:55.044Z,4.77
2018-08-25T00:54:30.485Z,4.30
2018-08-25T00:56:06.330Z,3.90
2018-08-25T00:57:41.753Z,4.07
2018-08-25T00:59:17.312Z,4.30
2018-08-25T01:00:53.191Z,4.07
2018-08-25T01:02:28.708Z,4.50
2018-08-25T01:04:04.188Z,3.90
2018-08-25T01:05:39.689Z,4.10
2018-08-25T01:07:15.519Z,3.90
2018-08-25T01:08:51.002Z,4.10
2018-08-25T01:10:26.458Z,4.07
2018-08-25T01:12:01.929Z,3.90
2018-08-25T01:13:37.530Z,3.80
2018-08-25T01:15:13.024Z,4.47
2018-08-25T01:16:48.469Z,4.20
2018-08-25T01:18:24.008Z,4.60
2018-08-25T01:19:59.479Z,4.40
2018-08-25T01:21:35.023Z,4.40
2018-08-25T01:23:10.874Z,4.00
2018-08-25T01:24:46.358Z,4.27
2018-08-25T01:26:21.816Z,4.10
2018-08-25T01:27:57.572Z,4.08
2018-08-25T01:29:33.074Z,4.33
2018-08-25T01:31:08.598Z,4.10
2018-08-25T01:32:44.039Z,4.73
2018-08-25T01:34:19.562Z,4.03
2018-08-25T01:35:55.038Z,3.90
2018-08-25T01:37:30.510Z,4.00
2018-08-25T01:39:08.148Z,4.57
2018-08-25T01:40:43.656Z,4.13
2018-08-25T01:42:20.047Z,3.93
2018-08-25T01:43:56.313Z,4.57
2018-08-25T01:45:31.785Z,4.07
2018-08-25T01:47:07.439Z,4.20
2018-08-25T01:48:42.856Z,4.00
2018-08-25T01:50:18.416Z,4.40
2018-08-25T01:51:53.894Z,4.13
2018-08-25T01:53:29.377Z,4.40
2018-08-25T01:55:05.850Z,4.30
2018-08-25T01:56:41.338Z,4.23
2018-08-25T01:58:23.133Z,5.03
2018-08-25T01:59:58.604Z,4.03
2018-08-25T02:01:34.054Z,4.13
2018-08-25T02:03:09.575Z,3.93
2018-08-25T02:04:45.799Z,4.37
2018-08-25T02:06:21.294Z,3.87
2018-08-25T02:07:57.216Z,3.83
2018-08-25T02:09:32.710Z,4.47
2018-08-25T02:11:08.175Z,4.20
2018-08-25T02:12:44.356Z,4.80
2018-08-25T02:14:19.809Z,4.40
2018-08-25T02:15:59.170Z,4.70
2018-08-25T02:17:35.520Z,4.40
2018-08-25T02:19:10.981Z,4.77
2018-08-25T02:20:46.444Z,4.57
2018-08-25T02:22:22.262Z,4.80
2018-08-25T02:23:58.201Z,4.70
2018-08-25T02:25:33.656Z,4.53
2018-08-25T02:27:09.746Z,4.97
2018-08-25T02:28:45.305Z,4.67
2018-08-25T02:30:20.776Z,4.77
2018-08-25T02:31:56.253Z,5.00
2018-08-25T02:33:32.225Z,4.57
2018-08-25T02:35:07.736Z,4.93
2018-08-25T02:36:43.430Z,4.23
2018-08-25T02:38:19.647Z,4.50
2018-08-25T02:39:55.496Z,4.00
2018-08-25T02:41:31.034Z,4.20
2018-08-25T02:43:06.512Z,3.97
2018-08-25T02:44:42.698Z,4.43
2018-08-25T02:46:18.188Z,5.00
2018-08-25T02:47:54.736Z,4.73
2018-08-25T02:49:30.268Z,4.73
2018-08-25T02:51:05.783Z,4.57
2018-08-25T02:52:42.351Z,4.00
2018-08-25T02:54:17.805Z,4.87
2018-08-25T02:55:53.283Z,4.70
2018-08-25T02:57:28.777Z,4.80
2018-08-25T02:59:04.378Z,4.47
2018-08-25T03:00:39.930Z,5.40
2018-08-25T03:02:15.405Z,4.20
2018-08-25T03:03:50.919Z,4.07
2018-08-25T03:05:26.400Z,3.93
2018-08-25T03:07:02.018Z,4.00
2018-08-25T03:08:37.465Z,3.97
2018-08-25T03:10:13.415Z,4.20
2018-08-25T03:11:48.898Z,4.10
2018-08-25T03:13:24.366Z,3.60
2018-08-25T03:14:59.805Z,4.43
2018-08-25T03:16:35.372Z,4.83
2018-08-25T03:18:10.845Z,4.13
2018-08-25T03:19:46.737Z,4.93
2018-08-25T03:21:22.218Z,4.00
2018-08-25T03:22:57.677Z,4.20
2018-08-25T03:24:33.134Z,4.83
2018-08-25T03:26:08.650Z,4.77
2018-08-25T03:27:44.157Z,4.53
2018-08-25T03:29:19.643Z,4.63
2018-08-25T03:30:55.646Z,4.33
2018-08-25T03:32:31.336Z,5.10
2018-08-25T03:34:06.928Z,5.10
2018-08-25T03:35:42.526Z,3.87
2018-08-25T03:37:17.980Z,4.70
2018-08-25T03:38:53.526Z,4.30
2018-08-25T03:40:28.964Z,4.17
2018-08-25T03:42:04.477Z,4.90
2018-08-25T03:43:39.913Z,5.50
2018-08-25T03:45:15.428Z,4.97
2018-08-25T03:46:50.906Z,4.60
2018-08-25T03:48:26.400Z,4.50
2018-08-25T03:50:01.905Z,4.23
2018-08-25T03:51:37.709Z,4.70
2018-08-25T03:53:13.205Z,4.47
2018-08-25T03:54:48.744Z,4.80
2018-08-25T03:56:24.208Z,4.80
2018-08-25T03:57:59.666Z,4.50
2018-08-25T03:59:35.752Z,4.40
2018-08-25T04:01:11.561Z,4.30
2018-08-25T04:02:47.184Z,4.57
2018-08-25T04:04:22.650Z,5.03
2018-08-25T04:05:58.836Z,4.37
2018-08-25T04:07:34.678Z,4.70
2018-08-25T04:09:12.202Z,4.53
2018-08-25T04:10:47.645Z,5.00
2018-08-25T04:12:23.133Z,4.70
2018-08-25T04:13:58.608Z,4.70
2018-08-25T04:15:35.095Z,4.60
2018-08-25T04:17:11.287Z,4.47
2018-08-25T04:18:46.889Z,5.20
2018-08-25T04:20:22.324Z,4.93
2018-08-25T04:21:57.773Z,4.60
2018-08-25T04:23:33.276Z,4.40
2018-08-25T04:25:08.777Z,4.33
2018-08-25T04:26:44.212Z,4.80
2018-08-25T04:28:19.721Z,4.33
2018-08-25T04:29:56.010Z,4.17
2018-08-25T04:31:31.486Z,4.57
2018-08-25T04:33:06.985Z,4.37
2018-08-25T04:34:42.484Z,4.90
2018-08-25T04:36:18.061Z,4.80
2018-08-25T04:37:53.535Z,4.50
2018-08-25T04:39:29.053Z,4.67
2018-08-25T04:41:04.548Z,4.50
2018-08-25T04:42:39.951Z,4.93
2018-08-25T04:44:15.461Z,5.00
2018-08-25T04:45:50.937Z,4.53
2018-08-25T04:47:26.428Z,4.37
2018-08-25T04:49:01.968Z,4.63
2018-08-25T04:50:37.425Z,4.80
2018-08-25T04:52:12.885Z,4.93
2018-08-25T04:53:48.407Z,4.43
2018-08-25T04:55:23.884Z,5.23
2018-08-25T04:56:59.364Z,4.07
2018-08-25T04:58:34.833Z,3.53
2018-08-25T05:00:10.323Z,4.00
2018-08-25T05:01:45.887Z,4.77
2018-08-25T05:03:21.330Z,4.20
2018-08-25T05:04:56.839Z,4.23
2018-08-25T05:06:32.291Z,4.80
2018-08-25T05:08:09.028Z,4.60
2018-08-25T05:09:44.565Z,5.23
2018-08-25T05:11:20.012Z,4.70
2018-08-25T05:12:55.468Z,4.57
2018-08-25T05:14:30.925Z,5.30
2018-08-25T05:16:06.369Z,5.27
2018-08-25T05:17:41.822Z,4.63
2018-08-25T05:19:17.318Z,4.80
2018-08-25T05:20:52.879Z,5.00
2018-08-25T05:22:28.436Z,5.03
2018-08-25T05:24:04.361Z,4.77
2018-08-25T05:25:39.826Z,5.03
2018-08-25T05:27:15.293Z,5.10
2018-08-25T05:28:50.910Z,5.17
2018-08-25T05:30:26.396Z,4.67
2018-08-25T05:32:01.850Z,4.30
2018-08-25T05:33:37.367Z,5.03
2018-08-25T05:35:12.843Z,5.20
2018-08-25T05:36:48.342Z,5.10
2018-08-25T05:38:23.828Z,5.20
2018-08-25T05:39:59.277Z,4.73
2018-08-25T05:41:34.782Z,4.93
2018-08-25T05:43:10.245Z,4.90
2018-08-25T05:44:45.710Z,4.30
2018-08-25T05:46:21.295Z,4.83
2018-08-25T05:47:56.825Z,4.60
2018-08-25T05:49:32.262Z,5.20
2018-08-25T05:51:07.728Z,4.33
2018-08-25T05:52:43.162Z,4.80
2018-08-25T05:54:18.676Z,5.33
2018-08-25T05:55:54.198Z,5.30
2018-08-25T05:57:29.709Z,5.17
2018-08-25T05:59:05.178Z,4.63
2018-08-25T06:00:40.629Z,4.40
2018-08-25T06:02:16.120Z,5.97
2018-08-25T06:03:54.756Z,4.87
2018-08-25T06:05:30.237Z,4.87
2018-08-25T06:07:05.704Z,6.60
2018-08-25T06:08:41.192Z,4.57
2018-08-25T06:10:16.666Z,4.33
2018-08-25T06:11:54.828Z,5.37
2018-08-25T06:13:30.335Z,4.70
2018-08-25T06:15:06.079Z,5.00
2018-08-25T06:16:41.528Z,5.07
2018-08-25T06:18:17.001Z,4.70
2018-08-25T06:19:52.760Z,4.70
2018-08-25T06:21:28.261Z,5.27
2018-08-25T06:23:03.765Z,5.47
2018-08-25T06:24:39.284Z,4.50
2018-08-25T06:26:14.781Z,5.00
2018-08-25T06:27:50.359Z,5.10
2018-08-25T06:29:26.880Z,4.53
2018-08-25T06:31:02.511Z,5.60
2018-08-25T06:32:37.984Z,5.27
2018-08-25T06:34:13.496Z,5.07
2018-08-25T06:35:49.024Z,5.33
2018-08-25T06:37:24.496Z,5.27
2018-08-25T06:39:00.161Z,5.10
2018-08-25T06:40:35.664Z,4.80
2018-08-25T06:42:11.303Z,4.20
2018-08-25T06:43:46.809Z,4.40
2018-08-25T06:45:22.441Z,5.30
2018-08-25T06:46:57.957Z,5.03
2018-08-25T06:48:33.778Z,4.70
2018-08-25T06:50:09.257Z,4.47
2018-08-25T06:51:44.724Z,4.20
2018-08-25T06:53:20.320Z,4.60
2018-08-25T06:54:56.664Z,4.70
2018-08-25T06:56:32.518Z,4.50
2018-08-25T06:58:08.036Z,4.97
2018-08-25T06:59:43.533Z,4.73
2018-08-25T07:01:19.005Z,4.77
2018-08-25T07:02:54.522Z,5.03
2018-08-25T07:04:29.998Z,4.50
2018-08-25T07:06:05.565Z,4.37
2018-08-25T07:07:41.079Z,4.60
2018-08-25T07:09:16.554Z,4.93
2018-08-25T07:10:52.054Z,5.33
2018-08-25T07:12:27.515Z,4.93
2018-08-25T07:14:03.008Z,4.70
2018-08-25T07:15:38.505Z,4.80
2018-08-25T07:17:13.995Z,4.33
2018-08-25T07:18:49.806Z,4.90
2018-08-25T07:20:25.424Z,4.77
2018-08-25T07:22:00.883Z,4.80
2018-08-25T07:23:36.988Z,4.30
2018-08-25T07:25:12.461Z,4.87
2018-08-25T07:26:47.920Z,4.30
2018-08-25T07:28:23.441Z,10.53
2018-08-25T07:29:58.955Z,5.17
2018-08-25T07:31:34.492Z,7.37
2018-08-25T07:33:09.927Z,10.03
2018-08-25T07:34:45.417Z,9.63
2018-08-25T07:36:20.846Z,4.40
2018-08-25T07:37:56.349Z,5.17
2018-08-25T07:39:32.409Z,3.80
2018-08-25T07:41:07.898Z,4.23
2018-08-25T07:42:43.389Z,5.40
2018-08-25T07:44:20.362Z,5.57
2018-08-25T07:45:55.884Z,3.77
2018-08-25T07:47:31.387Z,3.57
2018-08-25T07:49:06.842Z,3.20
2018-08-25T07:50:42.321Z,4.13
2018-08-25T07:52:17.825Z,5.57
2018-08-25T07:53:53.769Z,3.00
2018-08-25T07:55:29.454Z,3.67
2018-08-25T07:57:05.764Z,5.33
2018-08-25T07:58:41.549Z,4.17
2018-08-25T08:00:17.101Z,3.10
2018-08-25T08:01:52.551Z,3.70
2018-08-25T08:03:28.025Z,3.43
2018-08-25T08:05:03.536Z,3.87
2018-08-25T08:06:38.992Z,5.43
2018-08-25T08:08:14.448Z,2.80
2018-08-25T08:09:49.957Z,3.07
2018-08-25T08:11:25.417Z,2.80
2018-08-25T08:13:00.879Z,3.10
2018-08-25T08:14:36.388Z,3.10
2018-08-25T08:16:12.319Z,2.23
2018-08-25T08:17:47.800Z,4.70
2018-08-25T08:19:23.325Z,3.80
2018-08-25T08:20:58.868Z,3.50
2018-08-25T08:22:34.386Z,4.10
2018-08-25T08:24:09.937Z,2.63
2018-08-25T08:25:45.577Z,2.63
2018-08-25T08:27:21.107Z,3.83
2018-08-25T08:28:56.796Z,4.97
2018-08-25T08:30:32.277Z,3.13
2018-08-25T08:32:14.515Z,2.63
2018-08-25T08:33:50.025Z,2.90
2018-08-25T08:35:25.767Z,2.23
2018-08-25T08:37:01.229Z,2.97
2018-08-25T08:38:38.078Z,4.53
2018-08-25T08:40:13.602Z,4.27
2018-08-25T08:41:49.549Z,3.10
2018-08-25T08:43:26.310Z,2.23
2018-08-25T08:45:01.855Z,3.40
2018-08-25T08:46:37.821Z,2.93
2018-08-25T08:48:13.958Z,3.17
2018-08-25T08:49:49.488Z,6.47
2018-08-25T08:51:25.629Z,4.07
2018-08-25T08:53:01.625Z,4.70
2018-08-25T08:54:37.149Z,2.20
2018-08-25T08:56:12.667Z,3.33
2018-08-25T08:57:48.154Z,2.23
2018-08-25T08:59:23.696Z,4.00
2018-08-25T09:00:59.248Z,2.33
2018-08-25T09:02:34.784Z,2.33
2018-08-25T09:04:10.244Z,3.53
2018-08-25T09:05:45.713Z,2.60
2018-08-25T09:07:21.363Z,2.77
2018-08-25T09:08:56.936Z,2.67
2018-08-25T09:10:32.509Z,2.90
2018-08-25T09:12:07.978Z,3.87
2018-08-25T09:13:43.549Z,2.70
2018-08-25T09:15:19.496Z,1.97
2018-08-25T09:16:54.969Z,2.20
2018-08-25T09:18:30.521Z,2.73
2018-08-25T09:20:06.539Z,2.53
2018-08-25T09:21:42.044Z,2.60
2018-08-25T09:23:17.484Z,3.07
2018-08-25T09:24:52.961Z,4.50
2018-08-25T09:26:28.430Z,2.83
2018-08-25T09:28:03.904Z,2.13
2018-08-25T09:29:40.411Z,3.93
2018-08-25T09:31:16.276Z,3.93
2018-08-25T09:32:51.740Z,2.33
2018-08-25T09:34:27.223Z,3.97
2018-08-25T09:36:03.144Z,3.43
2018-08-25T09:37:38.591Z,2.87
2018-08-25T09:39:14.165Z,2.67
2018-08-25T09:40:49.864Z,2.50
2018-08-25T09:42:25.361Z,4.50
2018-08-25T09:44:00.830Z,3.70
2018-08-25T09:45:36.812Z,5.33
2018-08-25T09:47:12.626Z,3.27
2018-08-25T09:48:48.152Z,2.60
2018-08-25T09:50:23.705Z,2.90
2018-08-25T09:51:59.251Z,2.47
2018-08-25T09:53:35.868Z,2.87
2018-08-25T09:55:11.313Z,2.60
2018-08-25T09:56:46.822Z,5.40
2018-08-25T09:58:22.261Z,2.70
2018-08-25T09:59:58.210Z,3.60
2018-08-25T10:01:37.928Z,4.67
2018-08-25T10:03:13.385Z,4.10
2018-08-25T10:04:50.128Z,3.20
2018-08-25T10:06:25.626Z,3.80
2018-08-25T10:08:01.109Z,4.40
2018-08-25T10:09:36.909Z,2.67
2018-08-25T10:11:12.406Z,3.87
2018-08-25T10:12:47.858Z,3.37
2018-08-25T10:14:23.348Z,2.43
2018-08-25T10:15:58.874Z,3.70
2018-08-25T10:17:34.323Z,3.13
2018-08-25T10:19:09.810Z,3.13
2018-08-25T10:20:45.345Z,2.60
2018-08-25T10:22:22.355Z,2.87
2018-08-25T10:23:57.859Z,2.10
2018-08-25T10:25:33.338Z,2.63
2018-08-25T10:27:08.775Z,1.80
2018-08-25T10:28:44.294Z,2.53
2018-08-25T10:30:19.732Z,2.80
2018-08-25T10:31:55.218Z,2.53
2018-08-25T10:33:30.717Z,2.13
2018-08-25T10:35:06.784Z,2.23
2018-08-25T10:36:42.801Z,2.93
2018-08-25T10:38:18.240Z,1.73
2018-08-25T10:39:53.710Z,3.03
2018-08-25T10:41:29.185Z,2.03
2018-08-25T10:43:04.709Z,2.30
2018-08-25T10:44:40.179Z,2.27
2018-08-25T10:46:16.592Z,2.67
2018-08-25T10:47:53.153Z,3.57
2018-08-25T10:49:28.668Z,3.73
2018-08-25T10:51:04.671Z,2.03
2018-08-25T10:52:40.150Z,2.97
2018-08-25T10:54:15.974Z,1.80
2018-08-25T10:55:52.313Z,4.60
2018-08-25T10:57:27.765Z,5.80
2018-08-25T10:59:04.834Z,2.20
2018-08-25T11:00:40.565Z,3.97
2018-08-25T11:02:24.497Z,3.80
2018-08-25T11:04:00.014Z,2.97
2018-08-25T11:05:35.552Z,4.33
2018-08-25T11:07:12.905Z,2.73
2018-08-25T11:08:48.539Z,3.03
2018-08-25T11:10:23.932Z,2.47
2018-08-25T11:11:59.406Z,2.50
2018-08-25T11:13:34.896Z,1.83
2018-08-25T11:15:10.470Z,4.13
2018-08-25T11:16:45.970Z,3.47
2018-08-25T11:18:21.469Z,3.20
2018-08-25T11:19:56.951Z,1.93
2018-08-25T11:21:32.430Z,1.70
2018-08-25T11:23:08.098Z,2.27
2018-08-25T11:24:43.676Z,5.23
2018-08-25T11:26:19.455Z,2.40
2018-08-25T11:27:55.001Z,1.80
2018-08-25T11:29:31.815Z,3.17
2018-08-25T11:31:09.400Z,2.00
2018-08-25T11:32:44.877Z,1.67
2018-08-25T11:34:20.429Z,2.50
2018-08-25T11:35:56.608Z,1.73
2018-08-25T11:37:32.179Z,2.40
2018-08-25T11:39:10.289Z,1.97
2018-08-25T11:40:45.773Z,2.57
2018-08-25T11:42:21.262Z,1.63
2018-08-25T11:43:57.236Z,2.37
2018-08-25T11:45:33.445Z,2.90
2018-08-25T11:47:13.924Z,2.97
2018-08-25T11:48:49.475Z,3.43
2018-08-25T11:50:26.394Z,2.40
2018-08-25T11:52:01.873Z,1.87
2018-08-25T11:53:37.418Z,2.33
2018-08-25T11:55:12.944Z,1.57
2018-08-25T11:56:48.441Z,2.30
2018-08-25T11:58:24.237Z,1.53
2018-08-25T11:59:59.793Z,1.80
2018-08-25T12:01:35.237Z,1.33
2018-08-25T12:03:10.954Z,1.40
2018-08-25T12:04:46.484Z,1.50
2018-08-25T12:06:22.374Z,1.60
2018-08-25T12:07:58.892Z,1.53
2018-08-25T12:09:34.424Z,1.53
2018-08-25T12:11:10.004Z,1.40
2018-08-25T12:12:45.438Z,2.67
2018-08-25T12:14:20.901Z,1.40
2018-08-25T12:15:58.208Z,2.03
2018-08-25T12:17:33.742Z,1.43
2018-08-25T12:19:09.344Z,1.77
2018-08-25T12:20:44.772Z,1.47
2018-08-25T12:22:20.250Z,1.27
2018-08-25T12:23:55.822Z,3.33
2018-08-25T12:25:31.379Z,1.97
2018-08-25T12:27:07.144Z,3.30
2018-08-25T12:28:42.670Z,2.93
2018-08-25T12:30:18.246Z,1.47
2018-08-25T12:31:53.749Z,2.47
2018-08-25T12:33:29.245Z,2.40
2018-08-25T12:35:07.502Z,1.37
2018-08-25T12:38:25.149Z,1.60
2018-08-25T12:40:01.183Z,1.50
2018-08-25T12:41:38.320Z,1.20
2018-08-25T12:43:13.782Z,0.83
2018-08-25T12:44:49.611Z,1.10
2018-08-25T12:46:25.066Z,1.37
2018-08-25T12:48:00.533Z,0.90
2018-08-25T12:49:37.879Z,1.17
2018-08-25T12:51:13.372Z,1.33
2018-08-25T12:52:49.101Z,1.23
2018-08-25T12:54:24.551Z,1.13
2018-08-25T12:56:00.023Z,1.30
2018-08-25T12:57:35.542Z,1.13
2018-08-25T12:59:11.072Z,0.97
2018-08-25T13:00:46.466Z,1.20
2018-08-25T13:02:21.982Z,1.87
2018-08-25T13:03:57.490Z,1.00
2018-08-25T13:05:32.962Z,0.97
2018-08-25T13:07:08.450Z,1.17
2018-08-25T13:08:43.901Z,1.13
2018-08-25T13:10:19.432Z,1.63
2018-08-25T13:11:54.892Z,1.50
2018-08-25T13:13:30.342Z,1.03
2018-08-25T13:15:07.012Z,1.10
2018-08-25T13:16:42.550Z,1.60
2018-08-25T13:18:18.056Z,1.43
2018-08-25T13:19:53.546Z,1.10
2018-08-25T13:21:29.025Z,0.93
2018-08-25T13:23:04.471Z,1.43
2018-08-25T13:24:39.962Z,1.00
2018-08-25T13:26:15.422Z,1.17
2018-08-25T13:27:50.938Z,0.80
2018-08-25T13:29:26.471Z,2.40
2018-08-25T13:31:02.062Z,0.70
2018-08-25T13:32:37.453Z,1.10
2018-08-25T13:34:14.107Z,1.47
2018-08-25T13:35:49.598Z,1.43
2018-08-25T13:37:25.117Z,1.53
2018-08-25T13:39:00.957Z,1.27
2018-08-25T13:40:37.449Z,0.80
2018-08-25T13:42:13.670Z,1.07
2018-08-25T13:43:49.141Z,1.00
2018-08-25T13:45:24.810Z,1.07
2018-08-25T13:47:00.240Z,1.17
2018-08-25T13:48:35.687Z,1.00
2018-08-25T13:50:11.193Z,0.83
2018-08-25T13:51:46.689Z,1.17
2018-08-25T13:53:22.203Z,1.00
2018-08-25T13:54:57.719Z,0.97
2018-08-25T13:56:33.293Z,0.60
2018-08-25T13:58:08.769Z,0.80
2018-08-25T13:59:44.310Z,0.80
2018-08-25T14:01:19.787Z,1.30
2018-08-25T14:02:55.334Z,1.70
2018-08-25T14:04:30.894Z,0.80
2018-08-25T14:06:06.833Z,0.80
2018-08-25T14:07:42.287Z,1.17
2018-08-25T14:09:17.802Z,1.27
2018-08-25T14:10:53.305Z,0.90
2018-08-25T14:12:29.209Z,0.90
2018-08-25T14:14:04.746Z,0.90
2018-08-25T14:15:40.272Z,1.20
2018-08-25T14:17:15.884Z,1.70
2018-08-25T14:18:52.390Z,1.33
2018-08-25T14:20:27.955Z,1.70
2018-08-25T14:22:03.436Z,1.40
2018-08-25T14:23:38.968Z,0.70
2018-08-25T14:25:14.570Z,0.90
2018-08-25T14:26:50.107Z,0.90
2018-08-25T14:28:25.546Z,1.23
2018-08-25T14:30:01.002Z,0.60
2018-08-25T14:31:36.492Z,1.03
2018-08-25T14:33:12.285Z,0.90
2018-08-25T14:34:49.039Z,1.87
2018-08-25T14:36:24.503Z,0.87
2018-08-25T14:38:00.249Z,0.73
2018-08-25T14:39:35.765Z,1.53
2018-08-25T14:41:11.259Z,0.60
2018-08-25T14:42:46.797Z,0.80
2018-08-25T14:44:22.271Z,0.50
2018-08-25T14:45:57.814Z,0.90
2018-08-25T14:47:33.601Z,0.87
2018-08-25T14:49:09.084Z,0.93
2018-08-25T14:50:44.588Z,1.83
2018-08-25T14:52:20.109Z,2.87
2018-08-25T14:53:55.638Z,0.70
2018-08-25T14:55:31.690Z,0.70
2018-08-25T14:57:07.174Z,1.00
2018-08-25T14:58:42.625Z,1.27
2018-08-25T15:00:18.150Z,1.23
2018-08-25T15:01:53.705Z,1.90
2018-08-25T15:03:29.162Z,1.30
2018-08-25T15:05:05.278Z,0.83
2018-08-25T15:06:40.804Z,2.43
2018-08-25T15:08:16.321Z,1.20
2018-08-25T15:09:51.786Z,1.00
2018-08-25T15:11:27.393Z,0.77
2018-08-25T15:13:03.377Z,0.60
2018-08-25T15:14:38.888Z,1.17
2018-08-25T15:16:19.799Z,1.00
2018-08-25T15:17:58.673Z,1.20
2018-08-25T15:19:34.570Z,3.23
2018-08-25T15:21:10.069Z,1.00
2018-08-25T15:22:46.058Z,0.77
2018-08-25T15:24:21.579Z,0.73
2018-08-25T15:25:58.547Z,1.63
2018-08-25T15:27:34.300Z,0.70
2018-08-25T15:29:09.869Z,0.67
2018-08-25T15:30:47.389Z,1.07
2018-08-25T15:32:23.645Z,0.70
2018-08-25T15:34:00.264Z,0.80
2018-08-25T15:35:36.454Z,0.60
2018-08-25T15:37:12.103Z,0.90
2018-08-25T15:38:47.839Z,1.13
2018-08-25T15:40:23.482Z,1.63
2018-08-25T15:42:00.750Z,1.13
2018-08-25T15:43:36.390Z,0.80
2018-08-25T15:45:12.085Z,0.90
2018-08-25T15:46:48.005Z,0.67
2018-08-25T15:48:23.840Z,0.70
2018-08-25T15:50:00.122Z,1.03
2018-08-25T15:51:35.606Z,2.37
2018-08-25T15:53:11.173Z,0.77
2018-08-25T15:54:46.659Z,2.53
2018-08-25T15:56:22.150Z,1.17
2018-08-25T15:57:57.792Z,1.07
2018-08-25T15:59:33.271Z,0.93
2018-08-25T16:01:08.742Z,2.20
2018-08-25T16:02:44.209Z,19.90
2018-08-25T16:04:19.808Z,10.30
2018-08-25T16:05:55.433Z,15.17
2018-08-25T16:07:32.470Z,6.53
2018-08-25T16:09:23.143Z,2.67
2018-08-25T16:10:58.765Z,6.60
2018-08-25T16:12:34.407Z,13.63
2018-08-25T16:14:09.861Z,9.37
2018-08-25T16:15:47.258Z,2.10
2018-08-25T16:17:22.897Z,0.93
2018-08-25T16:18:58.409Z,2.93
2018-08-25T16:20:33.854Z,3.43
2018-08-25T16:22:11.129Z,2.30
2018-08-25T16:23:46.636Z,0.70
2018-08-25T16:25:22.213Z,0.83
2018-08-25T16:26:57.916Z,1.13
2018-08-25T16:28:34.059Z,1.13
2018-08-25T16:30:09.977Z,1.30
2018-08-25T16:31:45.487Z,2.67
2018-08-25T16:33:21.184Z,2.07
2018-08-25T16:34:56.729Z,1.23
2018-08-25T16:36:32.267Z,1.10
2018-08-25T16:38:08.762Z,1.20
2018-08-25T16:39:44.500Z,1.10
2018-08-25T16:41:20.032Z,1.83
2018-08-25T16:42:55.894Z,1.10
2018-08-25T16:44:31.423Z,1.40
2018-08-25T16:46:08.002Z,1.40
2018-08-25T16:47:43.566Z,1.10
2018-08-25T16:49:19.948Z,1.20
2018-08-25T16:50:55.376Z,1.30
2018-08-25T16:52:30.832Z,1.00
2018-08-25T16:54:07.307Z,0.90
2018-08-25T16:55:42.817Z,1.07
2018-08-25T16:57:18.306Z,0.83
2018-08-25T16:58:54.004Z,1.17
2018-08-25T17:00:29.538Z,1.20
2018-08-25T17:02:05.490Z,1.30
2018-08-25T17:03:41.053Z,1.00
2018-08-25T17:05:16.683Z,2.00
2018-08-25T17:06:53.266Z,2.13
2018-08-25T17:08:28.961Z,1.97
2018-08-25T17:10:04.472Z,1.67
2018-08-25T17:11:40.003Z,2.20
2018-08-25T17:13:15.459Z,1.30
2018-08-25T17:14:51.344Z,1.07
2018-08-25T17:16:27.804Z,1.10
2018-08-25T17:18:03.252Z,1.30
2018-08-25T17:19:38.739Z,1.37
2018-08-25T17:21:15.560Z,0.60
2018-08-25T17:22:51.162Z,0.90
2018-08-25T17:24:26.651Z,1.10
2018-08-25T17:26:02.136Z,0.80
2018-08-25T17:27:37.820Z,0.87
2018-08-25T17:29:19.952Z,0.73
2018-08-25T17:30:55.435Z,0.80
2018-08-25T17:32:30.958Z,1.03
2018-08-25T17:34:07.430Z,1.27
2018-08-25T17:35:42.908Z,1.17
2018-08-25T17:37:18.454Z,1.20
2018-08-25T17:38:54.088Z,0.93
2018-08-25T17:40:29.570Z,1.20
2018-08-25T17:42:05.123Z,1.53
2018-08-25T17:43:40.794Z,1.37
2018-08-25T17:45:16.318Z,0.90
2018-08-25T17:46:52.302Z,0.83
2018-08-25T17:48:27.778Z,1.53
2018-08-25T17:50:03.305Z,1.30
2018-08-25T17:51:38.785Z,1.00
2018-08-25T17:53:14.281Z,1.40
2018-08-25T17:54:50.237Z,1.60
2018-08-25T17:56:26.898Z,1.40
2018-08-25T17:58:03.195Z,1.00
2018-08-25T17:59:39.307Z,1.10
2018-08-25T18:01:15.430Z,1.20
2018-08-25T18:02:51.098Z,1.27
2018-08-25T18:04:26.826Z,1.30
2018-08-25T18:06:02.316Z,1.43
2018-08-25T18:07:37.801Z,1.43
2018-08-25T18:09:13.299Z,1.23
2018-08-25T18:10:49.080Z,1.30
2018-08-25T18:12:24.496Z,2.07
2018-08-25T18:14:00.308Z,1.30
2018-08-25T18:15:35.853Z,1.57
2018-08-25T18:17:11.389Z,1.47
2018-08-25T18:18:46.977Z,1.53
2018-08-25T18:20:23.686Z,1.43
2018-08-25T18:21:59.750Z,1.57
2018-08-25T18:23:37.222Z,1.87
2018-08-25T18:25:12.755Z,1.00
2018-08-25T18:26:48.266Z,1.17
2018-08-25T18:28:23.750Z,2.20
2018-08-25T18:29:59.226Z,2.23
2018-08-25T18:31:35.747Z,2.10
2018-08-25T18:33:11.303Z,2.90
2018-08-25T18:34:46.790Z,1.03
2018-08-25T18:36:22.597Z,1.17
2018-08-25T18:37:58.261Z,1.27
2018-08-25T18:39:33.888Z,1.33
2018-08-25T18:41:09.333Z,0.90
2018-08-25T18:42:45.486Z,1.30
2018-08-25T18:44:20.971Z,1.33
2018-08-25T18:45:56.477Z,1.17
2018-08-25T18:47:32.302Z,1.93
2018-08-25T18:49:07.801Z,1.30
2018-08-25T18:50:43.909Z,1.63
2018-08-25T18:52:20.102Z,1.30
2018-08-25T18:53:55.704Z,1.03
2018-08-25T18:55:31.654Z,1.20
2018-08-25T18:57:07.134Z,1.53
2018-08-25T18:58:43.847Z,1.60
2018-08-25T19:00:19.603Z,1.10
2018-08-25T19:01:55.211Z,1.07
2018-08-25T19:03:30.597Z,1.20
2018-08-25T19:05:08.099Z,2.30
2018-08-25T19:06:44.166Z,1.40
2018-08-25T19:08:19.671Z,1.20
2018-08-25T19:09:55.120Z,1.30
2018-08-25T19:11:30.633Z,1.43
2018-08-25T19:13:06.097Z,1.73
2018-08-25T19:14:41.586Z,1.00
2018-08-25T19:16:17.879Z,2.17
2018-08-25T19:17:53.653Z,12.27
2018-08-25T19:19:29.156Z,7.90
2018-08-25T19:21:04.694Z,3.10
2018-08-25T19:22:40.158Z,3.10
2018-08-25T19:24:15.830Z,1.93
2018-08-25T19:25:51.152Z,1.60
2018-08-25T19:27:27.660Z,1.87
2018-08-25T19:29:03.920Z,2.27
2018-08-25T19:30:39.419Z,2.70
2018-08-25T19:32:15.400Z,2.30
2018-08-25T19:33:50.976Z,1.90
2018-08-25T19:35:26.523Z,4.37
2018-08-25T19:37:01.970Z,4.70
2018-08-25T19:38:37.480Z,2.00
2018-08-25T19:40:12.986Z,1.67
2018-08-25T19:41:48.513Z,1.63
2018-08-25T19:43:24.019Z,2.97
2018-08-25T19:44:59.572Z,2.30
2018-08-25T19:46:35.058Z,2.30
2018-08-25T19:48:11.943Z,1.63
2018-08-25T19:49:49.694Z,1.90
2018-08-25T19:51:25.617Z,1.83
2018-08-25T19:53:01.583Z,1.73
2018-08-25T19:54:37.018Z,1.60
2018-08-25T19:56:12.594Z,1.60
2018-08-25T19:57:48.491Z,1.73
2018-08-25T19:59:24.264Z,1.70
2018-08-25T20:00:59.765Z,1.93
2018-08-25T20:02:35.257Z,1.63
2018-08-25T20:04:10.858Z,1.70
2018-08-25T20:05:46.435Z,1.80
2018-08-25T20:07:21.902Z,1.80
2018-08-25T20:08:57.401Z,1.70
2018-08-25T20:10:33.581Z,1.50
2018-08-25T20:12:09.044Z,1.43
2018-08-25T20:13:44.621Z,1.50
2018-08-25T20:15:21.962Z,1.23
2018-08-25T20:16:57.524Z,1.90
2018-08-25T20:18:33.727Z,1.70
2018-08-25T20:20:09.226Z,1.50
2018-08-25T20:21:44.729Z,1.60
2018-08-25T20:23:20.222Z,1.40
2018-08-25T20:24:55.737Z,1.40
2018-08-25T20:26:31.264Z,1.40
2018-08-25T20:28:06.777Z,1.40
2018-08-25T20:29:42.294Z,1.87
2018-08-25T20:31:17.857Z,1.17
2018-08-25T20:32:53.613Z,1.43
2018-08-25T20:34:29.066Z,1.33
2018-08-25T20:36:04.634Z,1.30
2018-08-25T20:37:40.128Z,1.43
2018-08-25T20:39:16.048Z,1.37
2018-08-25T20:40:51.689Z,1.77
2018-08-25T20:42:27.212Z,1.60
2018-08-25T20:44:04.072Z,1.10
2018-08-25T20:45:39.844Z,1.33
2018-08-25T20:47:15.339Z,1.83
2018-08-25T20:48:50.828Z,1.30
2018-08-25T20:50:27.263Z,1.37
2018-08-25T20:52:02.762Z,1.27
2018-08-25T20:53:38.238Z,1.47
2018-08-25T20:55:13.720Z,1.90
2018-08-25T20:56:49.698Z,1.93
2018-08-25T20:58:25.214Z,1.67
2018-08-25T21:00:00.723Z,1.47
2018-08-25T21:01:36.284Z,1.93
2018-08-25T21:03:11.795Z,1.77
2018-08-25T21:04:48.348Z,1.47
2018-08-25T21:06:23.818Z,1.70
2018-08-25T21:07:59.300Z,1.60
2018-08-25T21:09:34.944Z,2.67
2018-08-25T21:11:10.447Z,1.60
2018-08-25T21:12:45.972Z,1.30
2018-08-25T21:14:21.446Z,1.33
2018-08-25T21:15:57.036Z,1.27